Webster, NY (14580)

7:33 PM EDT on August 31, 2015 (GMT -0400)
West Webster | | Change Station
CLOSE
Current Station
Personal Weather Station
Location: Webster, NY
Elevation: 377 ft
Nearby Weather Stations

Elev 377 ft 43.22 °N, 77.49 °W | Updated 5 seconds ago

Partly Cloudy
Partly Cloudy
74.1 °F
Feels Like 74 °F
N
0.0
Wind Variable Wind from ENE
Gusts 0.0 mph

Today
High -- | Low -- °F
--% Chance of Precip.
Yesterday
High -- | Low -- °F
Precip. -- in
6:32 AM 7:47 PM
Waning Gibbous, 93% visible
Pressure 30.02 in
Visibility 10.0 miles
Clouds Scattered Clouds 3300 ft
Mostly Cloudy 4400 ft
Mostly Cloudy 25000 ft
Heat Index 74 °F
Dew Point 69 °F
Humidity 85%
Rainfall in
Snow Depth Not available.
UV 0.0 out of 12
Pollen 10.50 out of 12
Air Quality Not available.
Flu Activity Not available.
METAR KROC 312254Z 32004KT 10SM SCT033 BKN044 BKN250 26/19 A3001 RMK AO2 SLP164 T02560189
Pressure 30.02 in
Visibility 10.0 miles
Clouds Scattered Clouds 3300 ft
Mostly Cloudy 4400 ft
Mostly Cloudy 25000 ft
Heat Index 74 °F
Dew Point 69 °F
Humidity 85%
Rainfall in
Snow Depth Not available.
UV 0.0 out of 12
Pollen 10.50 out of 12
Air Quality Not available.
Flu Activity Not available.
METAR KROC 312254Z 32004KT 10SM SCT033 BKN044 BKN250 26/19 A3001 RMK AO2 SLP164 T02560189

10-Day Weather Forecast

×

Almanac

Astronomy

Aug. 31, 2015 Rise Set
Actual Time
Civil Twilight
Nautical Twilight
Astronomical Twilight
Moon
Length of Visible Light
Length of Day
Tomorrow will be .
, % of the Moon is Illuminated

Today's Extremes

State Highs State Lows

Community

WunderPhotos

Upload Photos

1,851,394 photos uploaded!

WunderBlogs® & News

Nearby

Air Quality

  Air Quality AQ Index Pollutant
Not available.

Snow Depth

Station Depth Elevation

Earthquake Activity

City Distance Mag. Time & Date
Minimum magnitude displayed is 2.5.

Coastal Water Temperatures

Place Temperature

Stations

Nearby Weather Stations

Station Location Temp. Windchill Dew Point Humidity Wind Precip. Elev Updated Type